ABW8891 UHHH-UHPP
Flight info
| Callsign | ABW8891 |
|---|---|
| Flight time | 2h 5m |
| Altitude | 37000 |
| Route | UHHH TOMSU N222 FI B915 LANRI P176 UB T577 SAMIK UHPP |
| Aircraft | B772/H-SDE2E3FGHIJ5LORVWXY/LB1D1 |
Departure
| Time | 2026-04-10 09:01 |
|---|---|
| Airport | Khabarovsk Novy Airport (UHHH) |
Arrival
| Time | 2026-04-10 11:06 |
|---|---|
| Airport | Yelizovo Airport (UHPP) |
| Time | Latitude | Longitude | Altitude | Speed | Heading |
|---|---|---|---|---|---|
| 2026-04-10 08:11 | 48.52746 | 135.17656 | 259 ft | 0 kts | 311° |
| 2026-04-10 08:52 | 48.52752 | 135.17647 | 259 ft | 3 kts | 313° |
| 2026-04-10 08:53 | 48.52779 | 135.17600 | 259 ft | 7 kts | 301° |
| 2026-04-10 08:53 | 48.52753 | 135.17517 | 259 ft | 11 kts | 201° |
| 2026-04-10 08:53 | 48.52667 | 135.17552 | 259 ft | 15 kts | 190° |
| 2026-04-10 08:53 | 48.52591 | 135.17477 | 259 ft | 6 kts | 222° |
| 2026-04-10 08:54 | 48.52549 | 135.17430 | 259 ft | 8 kts | 196° |
| 2026-04-10 08:54 | 48.52485 | 135.17468 | 259 ft | 11 kts | 139° |
| 2026-04-10 08:54 | 48.52423 | 135.17564 | 259 ft | 13 kts | 132° |
| 2026-04-10 08:54 | 48.52370 | 135.17653 | 259 ft | 0 kts | 132° |
| 2026-04-10 08:55 | 48.52360 | 135.17670 | 259 ft | 4 kts | 132° |
| 2026-04-10 08:55 | 48.52321 | 135.17734 | 259 ft | 11 kts | 132° |
| 2026-04-10 08:56 | 48.52252 | 135.17851 | 259 ft | 18 kts | 131° |
| 2026-04-10 08:56 | 48.52184 | 135.17966 | 259 ft | 2 kts | 132° |
| 2026-04-10 08:56 | 48.52159 | 135.18007 | 259 ft | 8 kts | 131° |
| 2026-04-10 08:56 | 48.52104 | 135.18082 | 259 ft | 13 kts | 156° |
| 2026-04-10 08:57 | 48.52013 | 135.18021 | 259 ft | 17 kts | 222° |
| 2026-04-10 08:57 | 48.51911 | 135.17880 | 259 ft | 21 kts | 222° |
| 2026-04-10 08:57 | 48.51788 | 135.17714 | 259 ft | 25 kts | 221° |
| 2026-04-10 08:57 | 48.51648 | 135.17522 | 259 ft | 29 kts | 222° |
| 2026-04-10 08:58 | 48.51557 | 135.17398 | 259 ft | 14 kts | 222° |
| 2026-04-10 08:58 | 48.51498 | 135.17273 | 259 ft | 15 kts | 270° |
| 2026-04-10 08:58 | 48.51558 | 135.17134 | 259 ft | 11 kts | 312° |
| 2026-04-10 08:58 | 48.51568 | 135.17119 | 259 ft | 0 kts | 312° |
| 2026-04-10 08:59 | 48.51582 | 135.17096 | 259 ft | 6 kts | 312° |
| 2026-04-10 08:59 | 48.51631 | 135.17029 | 259 ft | 12 kts | 341° |
| 2026-04-10 08:59 | 48.51724 | 135.17091 | 259 ft | 17 kts | 39° |
| 2026-04-10 09:00 | 48.51823 | 135.17227 | 259 ft | 20 kts | 41° |
| 2026-04-10 09:00 | 48.51949 | 135.17397 | 259 ft | 33 kts | 42° |
| 2026-04-10 09:00 | 48.52292 | 135.17865 | 259 ft | 110 kts | 41° |
| 2026-04-10 09:00 | 48.53040 | 135.18886 | 433 ft | 170 kts | 41° |
| 2026-04-10 09:01 | 48.53911 | 135.20085 | 1398 ft | 174 kts | 41° |
| 2026-04-10 09:01 | 48.54761 | 135.21272 | 2173 ft | 173 kts | 41° |
| 2026-04-10 09:01 | 48.55677 | 135.22542 | 2692 ft | 190 kts | 41° |
| 2026-04-10 09:01 | 48.56642 | 135.23880 | 3262 ft | 204 kts | 40° |
| 2026-04-10 09:02 | 48.57711 | 135.25365 | 3835 ft | 219 kts | 40° |
| 2026-04-10 09:02 | 48.58836 | 135.26926 | 4374 ft | 235 kts | 40° |
| 2026-04-10 09:02 | 48.59982 | 135.28519 | 4853 ft | 250 kts | 40° |
| 2026-04-10 09:02 | 48.61192 | 135.30200 | 5300 ft | 265 kts | 40° |
| 2026-04-10 09:03 | 48.62546 | 135.32086 | 5936 ft | 273 kts | 40° |
| 2026-04-10 09:03 | 48.63762 | 135.33781 | 6564 ft | 277 kts | 40° |
| 2026-04-10 09:03 | 48.65064 | 135.35600 | 7220 ft | 281 kts | 40° |
| 2026-04-10 09:04 | 48.67867 | 135.39517 | 8572 ft | 289 kts | 40° |
| 2026-04-10 09:04 | 48.69236 | 135.41432 | 9200 ft | 293 kts | 40° |
| 2026-04-10 09:04 | 48.70700 | 135.43481 | 9845 ft | 297 kts | 40° |
| 2026-04-10 09:04 | 48.72265 | 135.45674 | 10220 ft | 313 kts | 41° |
| 2026-04-10 09:05 | 48.73921 | 135.47998 | 10521 ft | 329 kts | 41° |
| 2026-04-10 09:05 | 48.75617 | 135.50382 | 10798 ft | 344 kts | 41° |
| 2026-04-10 09:05 | 48.77381 | 135.52969 | 11051 ft | 359 kts | 44° |
| 2026-04-10 09:05 | 48.79156 | 135.55768 | 11300 ft | 373 kts | 45° |
| 2026-04-10 09:06 | 48.80971 | 135.58635 | 11737 ft | 381 kts | 45° |
| 2026-04-10 09:06 | 48.82812 | 135.61537 | 12292 ft | 385 kts | 45° |
| 2026-04-10 09:06 | 48.84671 | 135.64464 | 12868 ft | 388 kts | 45° |
| 2026-04-10 09:06 | 48.86530 | 135.67392 | 13442 ft | 392 kts | 45° |
| 2026-04-10 09:07 | 48.88444 | 135.70407 | 14044 ft | 396 kts | 45° |
| 2026-04-10 09:07 | 48.90361 | 135.73427 | 14661 ft | 400 kts | 45° |
| 2026-04-10 09:07 | 48.92295 | 135.76479 | 15296 ft | 404 kts | 45° |
| 2026-04-10 09:07 | 48.94240 | 135.79549 | 15924 ft | 408 kts | 45° |
| 2026-04-10 09:08 | 48.96230 | 135.82693 | 16548 ft | 412 kts | 45° |
| 2026-04-10 09:08 | 48.98214 | 135.85832 | 17161 ft | 416 kts | 44° |
| 2026-04-10 09:08 | 49.00272 | 135.88979 | 17774 ft | 420 kts | 43° |
| 2026-04-10 09:08 | 49.02358 | 135.92133 | 18379 ft | 424 kts | 43° |
| 2026-04-10 09:09 | 49.04451 | 135.95300 | 18972 ft | 428 kts | 43° |
| 2026-04-10 09:09 | 49.06550 | 135.98486 | 19557 ft | 432 kts | 43° |
| 2026-04-10 09:09 | 49.08697 | 136.01752 | 20146 ft | 437 kts | 43° |
| 2026-04-10 09:09 | 49.10838 | 136.05013 | 20722 ft | 441 kts | 43° |
| 2026-04-10 09:10 | 49.13021 | 136.08344 | 21285 ft | 445 kts | 43° |
| 2026-04-10 09:10 | 49.15207 | 136.11684 | 21839 ft | 449 kts | 43° |
| 2026-04-10 09:10 | 49.17429 | 136.15085 | 22452 ft | 452 kts | 43° |
| 2026-04-10 09:10 | 49.19635 | 136.18468 | 23126 ft | 452 kts | 43° |
| 2026-04-10 09:11 | 49.21859 | 136.21881 | 23693 ft | 455 kts | 43° |
| 2026-04-10 09:11 | 49.24089 | 136.25308 | 24160 ft | 460 kts | 43° |
| 2026-04-10 09:11 | 49.26359 | 136.28803 | 24646 ft | 465 kts | 43° |
| 2026-04-10 09:11 | 49.28642 | 136.32321 | 25162 ft | 469 kts | 43° |
| 2026-04-10 09:12 | 49.30942 | 136.35872 | 25686 ft | 472 kts | 43° |
| 2026-04-10 09:12 | 49.33247 | 136.39435 | 26174 ft | 476 kts | 43° |
| 2026-04-10 09:12 | 49.35587 | 136.43057 | 26667 ft | 480 kts | 43° |
| 2026-04-10 09:12 | 49.37954 | 136.46729 | 27165 ft | 484 kts | 43° |
| 2026-04-10 09:13 | 49.40321 | 136.50401 | 27652 ft | 488 kts | 42° |
| 2026-04-10 09:13 | 49.42590 | 136.54283 | 28137 ft | 493 kts | 50° |
| 2026-04-10 09:13 | 49.44480 | 136.58708 | 28641 ft | 498 kts | 59° |
| 2026-04-10 09:13 | 49.45906 | 136.63501 | 29094 ft | 503 kts | 68° |
| 2026-04-10 09:14 | 49.47128 | 136.68608 | 29551 ft | 506 kts | 70° |
| 2026-04-10 09:14 | 49.48311 | 136.73708 | 30005 ft | 509 kts | 70° |
| 2026-04-10 09:14 | 49.49488 | 136.78813 | 30575 ft | 509 kts | 70° |
| 2026-04-10 09:14 | 49.50659 | 136.83910 | 31227 ft | 508 kts | 70° |
| 2026-04-10 09:15 | 49.51831 | 136.89029 | 31874 ft | 506 kts | 70° |
| 2026-04-10 09:15 | 49.52996 | 136.94130 | 32427 ft | 506 kts | 70° |
| 2026-04-10 09:15 | 49.54168 | 136.99274 | 32980 ft | 507 kts | 70° |
| 2026-04-10 09:15 | 49.55320 | 137.04344 | 33586 ft | 505 kts | 70° |
| 2026-04-10 09:16 | 49.56469 | 137.09416 | 34218 ft | 503 kts | 70° |
| 2026-04-10 09:16 | 49.57610 | 137.14468 | 34806 ft | 502 kts | 70° |
| 2026-04-10 09:16 | 49.58757 | 137.19553 | 35356 ft | 501 kts | 70° |
| 2026-04-10 09:16 | 49.59892 | 137.24602 | 35846 ft | 500 kts | 70° |
| 2026-04-10 09:17 | 49.61031 | 137.29683 | 36334 ft | 499 kts | 70° |
| 2026-04-10 09:17 | 49.62157 | 137.34715 | 36732 ft | 500 kts | 70° |
| 2026-04-10 09:17 | 49.64433 | 137.44923 | 36794 ft | 502 kts | 70° |
| 2026-04-10 09:18 | 49.66676 | 137.55031 | 36798 ft | 499 kts | 70° |
| 2026-04-10 09:18 | 49.68916 | 137.65178 | 36795 ft | 500 kts | 71° |
| 2026-04-10 09:19 | 49.71140 | 137.75316 | 36790 ft | 499 kts | 71° |
| 2026-04-10 09:19 | 49.73360 | 137.85487 | 36791 ft | 500 kts | 71° |
| 2026-04-10 09:20 | 49.75564 | 137.95633 | 36794 ft | 500 kts | 71° |
| 2026-04-10 09:20 | 49.77760 | 138.05795 | 36794 ft | 500 kts | 71° |
| 2026-04-10 09:21 | 49.79966 | 138.16049 | 36790 ft | 501 kts | 71° |
| 2026-04-10 09:21 | 49.82148 | 138.26247 | 36798 ft | 501 kts | 71° |
| 2026-04-10 09:22 | 49.84328 | 138.36479 | 36799 ft | 500 kts | 71° |
| 2026-04-10 09:22 | 49.86497 | 138.46713 | 36796 ft | 500 kts | 71° |
| 2026-04-10 09:23 | 49.88655 | 138.56952 | 36802 ft | 501 kts | 71° |
| 2026-04-10 09:23 | 49.90784 | 138.67224 | 36795 ft | 500 kts | 72° |
| 2026-04-10 09:24 | 49.92884 | 138.77449 | 36794 ft | 500 kts | 72° |
| 2026-04-10 09:24 | 49.94995 | 138.87770 | 36794 ft | 500 kts | 72° |
| 2026-04-10 09:25 | 49.97084 | 138.98038 | 36796 ft | 499 kts | 72° |
| 2026-04-10 09:25 | 49.99157 | 139.08276 | 36793 ft | 501 kts | 72° |
| 2026-04-10 09:26 | 50.01248 | 139.18658 | 36797 ft | 501 kts | 72° |
| 2026-04-10 09:26 | 50.03311 | 139.28954 | 36810 ft | 500 kts | 72° |
| 2026-04-10 09:27 | 50.05372 | 139.39296 | 36822 ft | 500 kts | 72° |
| 2026-04-10 09:27 | 50.07424 | 139.49646 | 36830 ft | 500 kts | 72° |
| 2026-04-10 09:28 | 50.09456 | 139.59950 | 36897 ft | 500 kts | 72° |
| 2026-04-10 09:28 | 50.11491 | 139.70328 | 36966 ft | 501 kts | 73° |
| 2026-04-10 09:29 | 50.13516 | 139.80708 | 36976 ft | 501 kts | 73° |
| 2026-04-10 09:29 | 50.15526 | 139.91066 | 36976 ft | 500 kts | 73° |
| 2026-04-10 09:30 | 50.17532 | 140.01462 | 36978 ft | 500 kts | 73° |
| 2026-04-10 09:30 | 50.19516 | 140.11797 | 36979 ft | 500 kts | 73° |
| 2026-04-10 09:31 | 50.21501 | 140.22197 | 36980 ft | 501 kts | 73° |
| 2026-04-10 09:31 | 50.23477 | 140.32611 | 36980 ft | 500 kts | 73° |
| 2026-04-10 09:32 | 50.25446 | 140.43041 | 36981 ft | 501 kts | 73° |
| 2026-04-10 09:32 | 50.27401 | 140.53451 | 36983 ft | 501 kts | 73° |
| 2026-04-10 09:33 | 50.29351 | 140.63898 | 36984 ft | 501 kts | 73° |
| 2026-04-10 09:33 | 50.31294 | 140.74368 | 36976 ft | 500 kts | 74° |
| 2026-04-10 09:34 | 50.33215 | 140.84778 | 36977 ft | 500 kts | 74° |
| 2026-04-10 09:34 | 50.35128 | 140.95204 | 36979 ft | 502 kts | 74° |
| 2026-04-10 09:35 | 50.37057 | 141.05778 | 36977 ft | 507 kts | 74° |
| 2026-04-10 09:35 | 50.38981 | 141.16385 | 36979 ft | 509 kts | 74° |
| 2026-04-10 09:36 | 50.40908 | 141.27074 | 36981 ft | 509 kts | 74° |
| 2026-04-10 09:36 | 50.42822 | 141.37752 | 36984 ft | 509 kts | 74° |
| 2026-04-10 09:37 | 50.44711 | 141.48355 | 36986 ft | 509 kts | 74° |
| 2026-04-10 09:37 | 50.46613 | 141.59096 | 36987 ft | 509 kts | 74° |
| 2026-04-10 09:38 | 50.48495 | 141.69791 | 36976 ft | 508 kts | 75° |
| 2026-04-10 09:38 | 50.50361 | 141.80455 | 36978 ft | 510 kts | 75° |
| 2026-04-10 09:39 | 50.52222 | 141.91159 | 36981 ft | 508 kts | 75° |
| 2026-04-10 09:39 | 50.54067 | 142.01829 | 36977 ft | 509 kts | 75° |
| 2026-04-10 09:40 | 50.55914 | 142.12582 | 36982 ft | 508 kts | 75° |
| 2026-04-10 09:40 | 50.57740 | 142.23276 | 36981 ft | 509 kts | 75° |
| 2026-04-10 09:41 | 50.59567 | 142.34042 | 36982 ft | 509 kts | 75° |
| 2026-04-10 09:41 | 50.61379 | 142.44801 | 36984 ft | 508 kts | 75° |
| 2026-04-10 09:42 | 50.63176 | 142.55554 | 36986 ft | 508 kts | 75° |
| 2026-04-10 09:42 | 50.64964 | 142.66318 | 36986 ft | 509 kts | 76° |
| 2026-04-10 09:43 | 50.66727 | 142.77005 | 36978 ft | 507 kts | 76° |
| 2026-04-10 09:43 | 50.68985 | 142.87589 | 36980 ft | 510 kts | 69° |
| 2026-04-10 09:44 | 50.71413 | 142.98056 | 36979 ft | 513 kts | 69° |
| 2026-04-10 09:44 | 50.73827 | 143.08641 | 36981 ft | 515 kts | 69° |
| 2026-04-10 09:45 | 50.76230 | 143.19307 | 36982 ft | 514 kts | 69° |
| 2026-04-10 09:45 | 50.78606 | 143.29954 | 36983 ft | 515 kts | 69° |
| 2026-04-10 09:46 | 50.80973 | 143.40639 | 36984 ft | 514 kts | 69° |
| 2026-04-10 09:46 | 50.83308 | 143.51259 | 36986 ft | 514 kts | 70° |
| 2026-04-10 09:47 | 50.85648 | 143.61983 | 36987 ft | 515 kts | 70° |
| 2026-04-10 09:47 | 50.87962 | 143.72652 | 36978 ft | 514 kts | 70° |
| 2026-04-10 09:48 | 50.90277 | 143.83380 | 36979 ft | 514 kts | 70° |
| 2026-04-10 09:48 | 50.92571 | 143.94063 | 36980 ft | 514 kts | 70° |
| 2026-04-10 09:49 | 50.94848 | 144.04758 | 36981 ft | 514 kts | 70° |
| 2026-04-10 09:49 | 50.97124 | 144.15518 | 36982 ft | 514 kts | 70° |
| 2026-04-10 09:50 | 50.99377 | 144.26222 | 36983 ft | 513 kts | 70° |
| 2026-04-10 09:50 | 51.01631 | 144.36949 | 36985 ft | 513 kts | 70° |
| 2026-04-10 09:51 | 51.03920 | 144.47653 | 36988 ft | 512 kts | 69° |
| 2026-04-10 09:51 | 51.06194 | 144.58339 | 36986 ft | 513 kts | 70° |
| 2026-04-10 09:52 | 51.08460 | 144.69051 | 36979 ft | 513 kts | 70° |
| 2026-04-10 09:52 | 51.10736 | 144.79871 | 36977 ft | 513 kts | 70° |
| 2026-04-10 09:53 | 51.12974 | 144.90576 | 36978 ft | 512 kts | 70° |
| 2026-04-10 09:53 | 51.15218 | 145.01364 | 36977 ft | 512 kts | 70° |
| 2026-04-10 09:54 | 51.17439 | 145.12096 | 36978 ft | 512 kts | 70° |
| 2026-04-10 09:54 | 51.19658 | 145.22879 | 36981 ft | 513 kts | 70° |
| 2026-04-10 09:55 | 51.21872 | 145.33702 | 36981 ft | 513 kts | 70° |
| 2026-04-10 09:55 | 51.24062 | 145.44463 | 36984 ft | 513 kts | 70° |
| 2026-04-10 09:56 | 51.26255 | 145.55298 | 36987 ft | 513 kts | 70° |
| 2026-04-10 09:56 | 51.28431 | 145.66107 | 36985 ft | 513 kts | 71° |
| 2026-04-10 09:57 | 51.30609 | 145.76988 | 36976 ft | 513 kts | 71° |
| 2026-04-10 09:57 | 51.32766 | 145.87823 | 36979 ft | 513 kts | 71° |
| 2026-04-10 09:58 | 51.34906 | 145.98636 | 36976 ft | 513 kts | 71° |
| 2026-04-10 09:58 | 51.37052 | 146.09538 | 36980 ft | 513 kts | 71° |
| 2026-04-10 09:59 | 51.39171 | 146.20366 | 36980 ft | 513 kts | 71° |
| 2026-04-10 09:59 | 51.41285 | 146.31227 | 36984 ft | 512 kts | 71° |
| 2026-04-10 10:00 | 51.43384 | 146.42116 | 36984 ft | 513 kts | 71° |
| 2026-04-10 10:00 | 51.45452 | 146.53081 | 36983 ft | 513 kts | 71° |
| 2026-04-10 10:01 | 51.47499 | 146.63994 | 36985 ft | 513 kts | 71° |
| 2026-04-10 10:01 | 51.49541 | 146.74937 | 36975 ft | 512 kts | 72° |
| 2026-04-10 10:02 | 51.51569 | 146.85867 | 36976 ft | 513 kts | 72° |
| 2026-04-10 10:02 | 51.53595 | 146.96854 | 36979 ft | 514 kts | 72° |
| 2026-04-10 10:03 | 51.55604 | 147.07812 | 36980 ft | 512 kts | 71° |
| 2026-04-10 10:03 | 51.57607 | 147.18800 | 36981 ft | 513 kts | 71° |
| 2026-04-10 10:04 | 51.60578 | 147.35223 | 36983 ft | 512 kts | 71° |
| 2026-04-10 10:05 | 51.62555 | 147.46233 | 36983 ft | 512 kts | 71° |
| 2026-04-10 10:05 | 51.64519 | 147.57236 | 36985 ft | 512 kts | 71° |
| 2026-04-10 10:06 | 51.66462 | 147.68188 | 36978 ft | 512 kts | 72° |
| 2026-04-10 10:06 | 51.68407 | 147.79225 | 36977 ft | 512 kts | 72° |
| 2026-04-10 10:07 | 51.70341 | 147.90262 | 36978 ft | 512 kts | 72° |
| 2026-04-10 10:07 | 51.72258 | 148.01268 | 36979 ft | 512 kts | 72° |
| 2026-04-10 10:08 | 51.74173 | 148.12337 | 36980 ft | 512 kts | 72° |
| 2026-04-10 10:08 | 51.76072 | 148.23381 | 36981 ft | 512 kts | 72° |
| 2026-04-10 10:09 | 51.77953 | 148.34386 | 36982 ft | 512 kts | 72° |
| 2026-04-10 10:09 | 51.79832 | 148.45453 | 36984 ft | 512 kts | 72° |
| 2026-04-10 10:10 | 51.81704 | 148.56546 | 36985 ft | 512 kts | 72° |
| 2026-04-10 10:10 | 51.83570 | 148.67679 | 36979 ft | 512 kts | 73° |
| 2026-04-10 10:11 | 51.85418 | 148.78777 | 36956 ft | 512 kts | 73° |
| 2026-04-10 10:11 | 51.87265 | 148.89940 | 36951 ft | 512 kts | 73° |
| 2026-04-10 10:12 | 51.89088 | 149.01028 | 36933 ft | 511 kts | 73° |
| 2026-04-10 10:12 | 51.90893 | 149.12079 | 36897 ft | 511 kts | 73° |
| 2026-04-10 10:13 | 51.92706 | 149.23253 | 36858 ft | 511 kts | 73° |
| 2026-04-10 10:13 | 51.94485 | 149.34291 | 36837 ft | 511 kts | 73° |
| 2026-04-10 10:14 | 51.96268 | 149.45421 | 36838 ft | 511 kts | 73° |
| 2026-04-10 10:14 | 51.98042 | 149.56575 | 36839 ft | 511 kts | 73° |
| 2026-04-10 10:15 | 51.99800 | 149.67706 | 36833 ft | 511 kts | 74° |
| 2026-04-10 10:15 | 52.01550 | 149.78856 | 36831 ft | 511 kts | 74° |
| 2026-04-10 10:16 | 52.03291 | 149.90027 | 36832 ft | 511 kts | 74° |
| 2026-04-10 10:16 | 52.05018 | 150.01189 | 36833 ft | 511 kts | 74° |
| 2026-04-10 10:17 | 52.06662 | 150.12457 | 36834 ft | 511 kts | 75° |
| 2026-04-10 10:17 | 52.08269 | 150.23644 | 36836 ft | 511 kts | 75° |
| 2026-04-10 10:18 | 52.09879 | 150.34917 | 36837 ft | 511 kts | 75° |
| 2026-04-10 10:18 | 52.11465 | 150.46094 | 36838 ft | 510 kts | 75° |
| 2026-04-10 10:19 | 52.13055 | 150.57371 | 36843 ft | 510 kts | 75° |
| 2026-04-10 10:19 | 52.14628 | 150.68610 | 36837 ft | 511 kts | 76° |
| 2026-04-10 10:20 | 52.16195 | 150.79890 | 36843 ft | 511 kts | 76° |
| 2026-04-10 10:20 | 52.17740 | 150.91093 | 36872 ft | 511 kts | 76° |
| 2026-04-10 10:21 | 52.19284 | 151.02371 | 36896 ft | 511 kts | 76° |
| 2026-04-10 10:21 | 52.20822 | 151.13699 | 36898 ft | 512 kts | 76° |
| 2026-04-10 10:22 | 52.22349 | 151.25032 | 36899 ft | 512 kts | 76° |
| 2026-04-10 10:22 | 52.23862 | 151.36346 | 36900 ft | 512 kts | 76° |
| 2026-04-10 10:23 | 52.25439 | 151.47679 | 36901 ft | 512 kts | 75° |
| 2026-04-10 10:23 | 52.27019 | 151.58975 | 36903 ft | 512 kts | 75° |
| 2026-04-10 10:24 | 52.28585 | 151.70274 | 36893 ft | 512 kts | 76° |
| 2026-04-10 10:24 | 52.30138 | 151.81584 | 36894 ft | 512 kts | 76° |
| 2026-04-10 10:25 | 52.31687 | 151.92955 | 36895 ft | 512 kts | 76° |
| 2026-04-10 10:25 | 52.33213 | 152.04248 | 36896 ft | 512 kts | 76° |
| 2026-04-10 10:26 | 52.34735 | 152.15595 | 36898 ft | 512 kts | 76° |
| 2026-04-10 10:26 | 52.36246 | 152.26956 | 36899 ft | 512 kts | 76° |
| 2026-04-10 10:27 | 52.37750 | 152.38353 | 36900 ft | 512 kts | 76° |
| 2026-04-10 10:27 | 52.39239 | 152.49734 | 36901 ft | 512 kts | 76° |
| 2026-04-10 10:28 | 52.40711 | 152.61066 | 36903 ft | 512 kts | 76° |
| 2026-04-10 10:28 | 52.42182 | 152.72488 | 36893 ft | 512 kts | 76° |
| 2026-04-10 10:29 | 52.43637 | 152.83878 | 36894 ft | 512 kts | 76° |
| 2026-04-10 10:29 | 52.45078 | 152.95252 | 36895 ft | 512 kts | 76° |
| 2026-04-10 10:30 | 52.46517 | 153.06702 | 36897 ft | 513 kts | 76° |
| 2026-04-10 10:30 | 52.47943 | 153.18144 | 36898 ft | 514 kts | 76° |
| 2026-04-10 10:31 | 52.49362 | 153.29627 | 36899 ft | 513 kts | 76° |
| 2026-04-10 10:31 | 52.50765 | 153.41077 | 36901 ft | 513 kts | 76° |
| 2026-04-10 10:32 | 52.52159 | 153.52556 | 36902 ft | 513 kts | 76° |
| 2026-04-10 10:32 | 52.53532 | 153.63957 | 36903 ft | 513 kts | 76° |
| 2026-04-10 10:33 | 52.54910 | 153.75493 | 36893 ft | 513 kts | 77° |
| 2026-04-10 10:33 | 52.56264 | 153.86937 | 36894 ft | 513 kts | 77° |
| 2026-04-10 10:34 | 52.57612 | 153.98428 | 36896 ft | 513 kts | 77° |
| 2026-04-10 10:34 | 52.58955 | 154.09979 | 36897 ft | 513 kts | 77° |
| 2026-04-10 10:35 | 52.60283 | 154.21495 | 36898 ft | 513 kts | 77° |
| 2026-04-10 10:35 | 52.61580 | 154.32857 | 36900 ft | 513 kts | 77° |
| 2026-04-10 10:36 | 52.62867 | 154.44232 | 36901 ft | 513 kts | 77° |
| 2026-04-10 10:36 | 52.64161 | 154.55783 | 36902 ft | 513 kts | 77° |
| 2026-04-10 10:37 | 52.65388 | 154.66977 | 36898 ft | 513 kts | 78° |
| 2026-04-10 10:37 | 52.66655 | 154.78654 | 36893 ft | 513 kts | 78° |
| 2026-04-10 10:38 | 52.67891 | 154.90157 | 36895 ft | 513 kts | 78° |
| 2026-04-10 10:38 | 52.69099 | 155.01497 | 36896 ft | 513 kts | 79° |
| 2026-04-10 10:39 | 52.70307 | 155.12941 | 36897 ft | 513 kts | 79° |
| 2026-04-10 10:39 | 52.71509 | 155.24448 | 36899 ft | 513 kts | 79° |
| 2026-04-10 10:40 | 52.72697 | 155.35924 | 36900 ft | 513 kts | 79° |
| 2026-04-10 10:40 | 52.73875 | 155.47421 | 36901 ft | 513 kts | 79° |
| 2026-04-10 10:41 | 52.75043 | 155.58940 | 36903 ft | 513 kts | 79° |
| 2026-04-10 10:41 | 52.76190 | 155.70363 | 36893 ft | 513 kts | 79° |
| 2026-04-10 10:42 | 52.77325 | 155.81793 | 36894 ft | 513 kts | 79° |
| 2026-04-10 10:42 | 52.78446 | 155.93297 | 36895 ft | 513 kts | 80° |
| 2026-04-10 10:43 | 52.79556 | 156.04819 | 36896 ft | 513 kts | 80° |
| 2026-04-10 10:43 | 52.80642 | 156.16199 | 36898 ft | 513 kts | 79° |
| 2026-04-10 10:44 | 52.81800 | 156.27534 | 36897 ft | 512 kts | 74° |
| 2026-04-10 10:44 | 52.83646 | 156.38556 | 36900 ft | 511 kts | 71° |
| 2026-04-10 10:44 | 52.84553 | 156.43831 | 36753 ft | 505 kts | 71° |
| 2026-04-10 10:45 | 52.85501 | 156.49361 | 35980 ft | 507 kts | 71° |
| 2026-04-10 10:45 | 52.86446 | 156.54900 | 35068 ft | 513 kts | 71° |
| 2026-04-10 10:45 | 52.87416 | 156.60600 | 34180 ft | 516 kts | 72° |
| 2026-04-10 10:45 | 52.88391 | 156.66357 | 33327 ft | 518 kts | 72° |
| 2026-04-10 10:46 | 52.89355 | 156.72081 | 32468 ft | 520 kts | 72° |
| 2026-04-10 10:46 | 52.90329 | 156.77879 | 31582 ft | 522 kts | 72° |
| 2026-04-10 10:46 | 52.91296 | 156.83655 | 30721 ft | 522 kts | 72° |
| 2026-04-10 10:46 | 52.92245 | 156.89348 | 30170 ft | 515 kts | 72° |
| 2026-04-10 10:47 | 52.93187 | 156.95023 | 29668 ft | 507 kts | 72° |
| 2026-04-10 10:47 | 52.94122 | 157.00671 | 29129 ft | 501 kts | 72° |
| 2026-04-10 10:47 | 52.95021 | 157.06120 | 28590 ft | 495 kts | 71° |
| 2026-04-10 10:47 | 52.95929 | 157.11639 | 28040 ft | 489 kts | 71° |
| 2026-04-10 10:48 | 52.96811 | 157.17015 | 27497 ft | 484 kts | 71° |
| 2026-04-10 10:48 | 52.97683 | 157.22353 | 26957 ft | 478 kts | 71° |
| 2026-04-10 10:48 | 52.98534 | 157.27576 | 26417 ft | 473 kts | 71° |
| 2026-04-10 10:48 | 52.99372 | 157.32730 | 25881 ft | 468 kts | 71° |
| 2026-04-10 10:49 | 53.00210 | 157.37906 | 25342 ft | 463 kts | 71° |
| 2026-04-10 10:49 | 53.01035 | 157.43013 | 24802 ft | 458 kts | 71° |
| 2026-04-10 10:49 | 53.01832 | 157.47963 | 24278 ft | 453 kts | 70° |
| 2026-04-10 10:49 | 53.02613 | 157.52828 | 23754 ft | 447 kts | 70° |
| 2026-04-10 10:50 | 53.03363 | 157.57510 | 23249 ft | 442 kts | 70° |
| 2026-04-10 10:50 | 53.04024 | 157.62329 | 22731 ft | 439 kts | 76° |
| 2026-04-10 10:50 | 53.04520 | 157.67125 | 22083 ft | 437 kts | 77° |
| 2026-04-10 10:50 | 53.05014 | 157.72076 | 21456 ft | 433 kts | 77° |
| 2026-04-10 10:51 | 53.05495 | 157.76927 | 20915 ft | 427 kts | 77° |
| 2026-04-10 10:51 | 53.05965 | 157.81691 | 20404 ft | 420 kts | 77° |
| 2026-04-10 10:51 | 53.06430 | 157.86427 | 19901 ft | 413 kts | 77° |
| 2026-04-10 10:51 | 53.06881 | 157.91040 | 19403 ft | 407 kts | 77° |
| 2026-04-10 10:52 | 53.07321 | 157.95550 | 18913 ft | 401 kts | 77° |
| 2026-04-10 10:52 | 53.07753 | 157.99989 | 18437 ft | 408 kts | 77° |
| 2026-04-10 10:52 | 53.08191 | 158.04503 | 17921 ft | 407 kts | 77° |
| 2026-04-10 10:52 | 53.08627 | 158.09032 | 17401 ft | 403 kts | 77° |
| 2026-04-10 10:53 | 53.09065 | 158.13596 | 16898 ft | 398 kts | 77° |
| 2026-04-10 10:53 | 53.09487 | 158.18025 | 16401 ft | 395 kts | 77° |
| 2026-04-10 10:53 | 53.09907 | 158.22447 | 15904 ft | 391 kts | 77° |
| 2026-04-10 10:53 | 53.10325 | 158.26855 | 15416 ft | 387 kts | 77° |
| 2026-04-10 10:54 | 53.10735 | 158.31197 | 14923 ft | 384 kts | 77° |
| 2026-04-10 10:54 | 53.11145 | 158.35568 | 14432 ft | 380 kts | 77° |
| 2026-04-10 10:54 | 53.11547 | 158.39861 | 13946 ft | 377 kts | 77° |
| 2026-04-10 10:54 | 53.11937 | 158.44045 | 13464 ft | 373 kts | 78° |
| 2026-04-10 10:55 | 53.12330 | 158.48274 | 13010 ft | 371 kts | 78° |
| 2026-04-10 10:55 | 53.12717 | 158.52463 | 12541 ft | 368 kts | 78° |
| 2026-04-10 10:55 | 53.13065 | 158.56632 | 12056 ft | 365 kts | 83° |
| 2026-04-10 10:55 | 53.12912 | 158.60771 | 11558 ft | 364 kts | 98° |
| 2026-04-10 10:56 | 53.12152 | 158.64731 | 11087 ft | 362 kts | 113° |
| 2026-04-10 10:56 | 53.10827 | 158.68198 | 10769 ft | 355 kts | 131° |
| 2026-04-10 10:56 | 53.09095 | 158.70962 | 10225 ft | 347 kts | 142° |
| 2026-04-10 10:56 | 53.07177 | 158.73164 | 9680 ft | 330 kts | 150° |
| 2026-04-10 10:57 | 53.05302 | 158.75079 | 9254 ft | 312 kts | 150° |
| 2026-04-10 10:57 | 53.03467 | 158.76735 | 8921 ft | 295 kts | 155° |
| 2026-04-10 10:57 | 53.01671 | 158.78134 | 8736 ft | 275 kts | 158° |
| 2026-04-10 10:57 | 52.99945 | 158.79303 | 8588 ft | 261 kts | 168° |
| 2026-04-10 10:58 | 52.98204 | 158.79460 | 8363 ft | 253 kts | 194° |
| 2026-04-10 10:58 | 52.96680 | 158.78384 | 8264 ft | 238 kts | 220° |
| 2026-04-10 10:58 | 52.95590 | 158.76415 | 8077 ft | 227 kts | 244° |
| 2026-04-10 10:58 | 52.94912 | 158.74173 | 7977 ft | 213 kts | 249° |
| 2026-04-10 10:59 | 52.94320 | 158.71973 | 7658 ft | 214 kts | 250° |
| 2026-04-10 10:59 | 52.93732 | 158.69638 | 6913 ft | 232 kts | 251° |
| 2026-04-10 10:59 | 52.93114 | 158.67160 | 6139 ft | 229 kts | 251° |
| 2026-04-10 10:59 | 52.92823 | 158.64679 | 5384 ft | 222 kts | 278° |
| 2026-04-10 11:00 | 52.93335 | 158.62375 | 4619 ft | 217 kts | 310° |
| 2026-04-10 11:00 | 52.94468 | 158.60785 | 3866 ft | 215 kts | 330° |
| 2026-04-10 11:00 | 52.95770 | 158.59680 | 3127 ft | 214 kts | 336° |
| 2026-04-10 11:00 | 52.97132 | 158.58701 | 2426 ft | 212 kts | 338° |
| 2026-04-10 11:01 | 52.98421 | 158.57817 | 2138 ft | 194 kts | 339° |
| 2026-04-10 11:01 | 52.99636 | 158.56992 | 2099 ft | 186 kts | 339° |
| 2026-04-10 11:01 | 53.00797 | 158.56200 | 2095 ft | 177 kts | 338° |
| 2026-04-10 11:01 | 53.01897 | 158.55444 | 2094 ft | 168 kts | 339° |
| 2026-04-10 11:02 | 53.02955 | 158.54719 | 2101 ft | 163 kts | 337° |
| 2026-04-10 11:02 | 53.03976 | 158.54016 | 2088 ft | 152 kts | 338° |
| 2026-04-10 11:02 | 53.04928 | 158.53361 | 2090 ft | 145 kts | 337° |
| 2026-04-10 11:02 | 53.05866 | 158.52716 | 1965 ft | 144 kts | 336° |
| 2026-04-10 11:03 | 53.06753 | 158.52103 | 1811 ft | 132 kts | 338° |
| 2026-04-10 11:03 | 53.07566 | 158.51543 | 1678 ft | 128 kts | 339° |
| 2026-04-10 11:03 | 53.08362 | 158.50995 | 1533 ft | 125 kts | 338° |
| 2026-04-10 11:03 | 53.09161 | 158.50442 | 1385 ft | 125 kts | 339° |
| 2026-04-10 11:04 | 53.09961 | 158.49893 | 1235 ft | 125 kts | 338° |
| 2026-04-10 11:04 | 53.10746 | 158.49348 | 1085 ft | 125 kts | 338° |
| 2026-04-10 11:04 | 53.11552 | 158.48791 | 933 ft | 125 kts | 339° |
| 2026-04-10 11:04 | 53.12354 | 158.48254 | 773 ft | 124 kts | 338° |
| 2026-04-10 11:05 | 53.13945 | 158.47124 | 477 ft | 124 kts | 339° |
| 2026-04-10 11:05 | 53.14745 | 158.46559 | 332 ft | 125 kts | 340° |
| 2026-04-10 11:05 | 53.15549 | 158.46025 | 184 ft | 125 kts | 338° |
| 2026-04-10 11:06 | 53.16309 | 158.45494 | 140 ft | 107 kts | 340° |
| 2026-04-10 11:06 | 53.16885 | 158.45106 | 139 ft | 71 kts | 337° |
| 2026-04-10 11:06 | 53.17259 | 158.44840 | 133 ft | 56 kts | 338° |
| 2026-04-10 11:06 | 53.17478 | 158.44688 | 130 ft | 33 kts | 338° |
| 2026-04-10 11:07 | 53.17579 | 158.44562 | 128 ft | 22 kts | 273° |
| 2026-04-10 11:07 | 53.17543 | 158.44385 | 125 ft | 23 kts | 248° |
| 2026-04-10 11:07 | 53.17505 | 158.44228 | 123 ft | 7 kts | 248° |
| 2026-04-10 11:07 | 53.17480 | 158.44128 | 123 ft | 11 kts | 248° |
| 2026-04-10 11:08 | 53.17437 | 158.43980 | 120 ft | 16 kts | 241° |
| 2026-04-10 11:08 | 53.17371 | 158.43790 | 116 ft | 21 kts | 240° |
| 2026-04-10 11:08 | 53.17326 | 158.43661 | 114 ft | 16 kts | 240° |
| 2026-04-10 11:08 | 53.17265 | 158.43488 | 113 ft | 19 kts | 240° |
| 2026-04-10 11:09 | 53.17189 | 158.43272 | 109 ft | 23 kts | 240° |
| 2026-04-10 11:09 | 53.17101 | 158.43022 | 107 ft | 20 kts | 240° |
| 2026-04-10 11:09 | 53.17046 | 158.42862 | 106 ft | 14 kts | 240° |
| 2026-04-10 11:09 | 53.17005 | 158.42784 | 106 ft | 10 kts | 206° |
| 2026-04-10 11:10 | 53.16925 | 158.42807 | 107 ft | 13 kts | 152° |
| 2026-04-10 11:10 | 53.16872 | 158.42859 | 108 ft | 6 kts | 149° |
| 2026-04-10 11:10 | 53.16826 | 158.42894 | 108 ft | 8 kts | 182° |
| 2026-04-10 11:10 | 53.16792 | 158.42830 | 107 ft | 0 kts | 243° |
| 2026-04-10 11:11 | 53.16788 | 158.42818 | 107 ft | 0 kts | 242° |